sensor_id;sensor_type;location;lat;lon;timestamp;P1;durP1;ratioP1;P2;durP2;ratioP2
42906;SDS011;28552;51.146;6.576;2022-12-13T00:02:59;8.90;;;6.23;;
42906;SDS011;28552;51.146;6.576;2022-12-13T00:06:00;12.50;;;5.80;;
42906;SDS011;28552;51.146;6.576;2022-12-13T00:09:04;11.10;;;6.23;;
42906;SDS011;28552;51.146;6.576;2022-12-13T00:12:05;13.00;;;5.77;;
42906;SDS011;28552;51.146;6.576;2022-12-13T00:15:06;17.00;;;4.80;;
42906;SDS011;28552;51.146;6.576;2022-12-13T00:18:07;11.57;;;6.30;;
42906;SDS011;28552;51.146;6.576;2022-12-13T00:21:08;9.10;;;4.87;;
42906;SDS011;28552;51.146;6.576;2022-12-13T00:24:11;10.30;;;3.97;;
42906;SDS011;28552;51.146;6.576;2022-12-13T00:27:12;11.33;;;4.57;;
42906;SDS011;28552;51.146;6.576;2022-12-13T00:30:13;10.70;;;4.07;;
42906;SDS011;28552;51.146;6.576;2022-12-13T00:33:13;8.27;;;3.67;;
42906;SDS011;28552;51.146;6.576;2022-12-13T00:36:14;10.37;;;5.23;;
42906;SDS011;28552;51.146;6.576;2022-12-13T00:39:15;8.60;;;5.30;;
42906;SDS011;28552;51.146;6.576;2022-12-13T00:42:17;11.07;;;5.67;;
42906;SDS011;28552;51.146;6.576;2022-12-13T00:45:18;7.70;;;4.60;;
42906;SDS011;28552;51.146;6.576;2022-12-13T00:48:18;8.37;;;4.37;;
42906;SDS011;28552;51.146;6.576;2022-12-13T00:51:19;8.83;;;4.87;;
42906;SDS011;28552;51.146;6.576;2022-12-13T00:54:20;8.70;;;5.10;;
42906;SDS011;28552;51.146;6.576;2022-12-13T00:57:21;13.13;;;5.43;;
42906;SDS011;28552;51.146;6.576;2022-12-13T01:00:22;8.23;;;4.43;;
42906;SDS011;28552;51.146;6.576;2022-12-13T01:03:24;14.73;;;6.20;;
42906;SDS011;28552;51.146;6.576;2022-12-13T01:06:28;8.53;;;5.13;;
42906;SDS011;28552;51.146;6.576;2022-12-13T01:09:34;10.60;;;5.60;;
42906;SDS011;28552;51.146;6.576;2022-12-13T01:12:34;11.07;;;5.40;;
42906;SDS011;28552;51.146;6.576;2022-12-13T01:15:38;11.57;;;6.20;;
42906;SDS011;28552;51.146;6.576;2022-12-13T01:18:40;11.57;;;5.63;;
42906;SDS011;28552;51.146;6.576;2022-12-13T01:21:40;8.80;;;4.80;;
42906;SDS011;28552;51.146;6.576;2022-12-13T01:24:41;13.37;;;5.03;;
42906;SDS011;28552;51.146;6.576;2022-12-13T01:27:42;11.73;;;7.07;;
42906;SDS011;28552;51.146;6.576;2022-12-13T01:30:42;13.47;;;5.30;;
42906;SDS011;28552;51.146;6.576;2022-12-13T01:33:44;10.50;;;7.00;;
42906;SDS011;28552;51.146;6.576;2022-12-13T01:36:45;13.20;;;5.57;;
42906;SDS011;28552;51.146;6.576;2022-12-13T01:39:46;9.23;;;4.93;;
42906;SDS011;28552;51.146;6.576;2022-12-13T01:42:47;9.70;;;5.83;;
42906;SDS011;28552;51.146;6.576;2022-12-13T01:45:48;10.73;;;4.70;;
42906;SDS011;28552;51.146;6.576;2022-12-13T01:48:50;6.10;;;3.63;;
42906;SDS011;28552;51.146;6.576;2022-12-13T01:51:54;8.10;;;4.03;;
42906;SDS011;28552;51.146;6.576;2022-12-13T01:54:58;5.53;;;4.40;;
42906;SDS011;28552;51.146;6.576;2022-12-13T01:58:03;7.97;;;4.77;;
42906;SDS011;28552;51.146;6.576;2022-12-13T02:01:04;9.57;;;5.40;;
42906;SDS011;28552;51.146;6.576;2022-12-13T02:04:05;11.80;;;4.43;;
42906;SDS011;28552;51.146;6.576;2022-12-13T02:07:06;13.00;;;5.20;;
42906;SDS011;28552;51.146;6.576;2022-12-13T02:10:08;10.60;;;4.97;;
42906;SDS011;28552;51.146;6.576;2022-12-13T02:13:10;13.40;;;7.87;;
42906;SDS011;28552;51.146;6.576;2022-12-13T02:26:55;12.17;;;7.03;;
42906;SDS011;28552;51.146;6.576;2022-12-13T02:33:14;12.27;;;3.97;;
42906;SDS011;28552;51.146;6.576;2022-12-13T02:39:43;9.07;;;4.78;;
42906;SDS011;28552;51.146;6.576;2022-12-13T02:46:16;8.03;;;5.57;;
42906;SDS011;28552;51.146;6.576;2022-12-13T02:49:20;12.63;;;4.87;;
42906;SDS011;28552;51.146;6.576;2022-12-13T02:52:24;11.50;;;5.13;;
42906;SDS011;28552;51.146;6.576;2022-12-13T02:55:27;14.50;;;6.27;;
42906;SDS011;28552;51.146;6.576;2022-12-13T02:58:29;14.13;;;5.40;;
42906;SDS011;28552;51.146;6.576;2022-12-13T03:01:40;9.67;;;4.87;;
42906;SDS011;28552;51.146;6.576;2022-12-13T03:05:01;10.70;;;5.30;;
42906;SDS011;28552;51.146;6.576;2022-12-13T03:08:33;12.53;;;4.47;;
42906;SDS011;28552;51.146;6.576;2022-12-13T03:11:53;12.93;;;6.27;;
42906;SDS011;28552;51.146;6.576;2022-12-13T03:18:26;10.07;;;3.90;;
42906;SDS011;28552;51.146;6.576;2022-12-13T03:21:27;8.50;;;3.97;;
42906;SDS011;28552;51.146;6.576;2022-12-13T03:24:28;10.43;;;4.53;;
42906;SDS011;28552;51.146;6.576;2022-12-13T03:27:29;10.47;;;6.17;;
42906;SDS011;28552;51.146;6.576;2022-12-13T03:30:30;16.40;;;7.87;;
42906;SDS011;28552;51.146;6.576;2022-12-13T03:33:31;11.60;;;7.07;;
42906;SDS011;28552;51.146;6.576;2022-12-13T03:36:32;11.00;;;6.20;;
42906;SDS011;28552;51.146;6.576;2022-12-13T03:39:33;12.10;;;6.63;;
42906;SDS011;28552;51.146;6.576;2022-12-13T03:42:33;14.47;;;6.67;;
42906;SDS011;28552;51.146;6.576;2022-12-13T03:45:34;21.50;;;8.03;;
42906;SDS011;28552;51.146;6.576;2022-12-13T03:48:34;13.00;;;7.67;;
42906;SDS011;28552;51.146;6.576;2022-12-13T03:51:35;14.33;;;6.63;;
42906;SDS011;28552;51.146;6.576;2022-12-13T03:54:36;18.90;;;7.43;;
42906;SDS011;28552;51.146;6.576;2022-12-13T03:57:36;10.00;;;6.13;;
42906;SDS011;28552;51.146;6.576;2022-12-13T04:00:37;13.93;;;6.90;;
42906;SDS011;28552;51.146;6.576;2022-12-13T04:03:38;10.60;;;5.50;;
42906;SDS011;28552;51.146;6.576;2022-12-13T04:06:40;13.40;;;7.33;;
42906;SDS011;28552;51.146;6.576;2022-12-13T04:09:40;11.17;;;7.03;;
42906;SDS011;28552;51.146;6.576;2022-12-13T04:12:41;15.70;;;6.63;;
42906;SDS011;28552;51.146;6.576;2022-12-13T04:15:56;10.13;;;6.73;;
42906;SDS011;28552;51.146;6.576;2022-12-13T04:18:57;11.00;;;4.97;;
42906;SDS011;28552;51.146;6.576;2022-12-13T04:21:58;20.13;;;8.13;;
42906;SDS011;28552;51.146;6.576;2022-12-13T04:24:58;15.53;;;6.10;;
42906;SDS011;28552;51.146;6.576;2022-12-13T04:27:59;20.03;;;8.20;;
42906;SDS011;28552;51.146;6.576;2022-12-13T04:30:59;18.77;;;7.57;;
42906;SDS011;28552;51.146;6.576;2022-12-13T04:34:00;9.67;;;4.87;;
42906;SDS011;28552;51.146;6.576;2022-12-13T04:37:00;12.17;;;5.40;;
42906;SDS011;28552;51.146;6.576;2022-12-13T04:40:01;11.83;;;5.13;;
42906;SDS011;28552;51.146;6.576;2022-12-13T04:43:01;12.63;;;6.87;;
42906;SDS011;28552;51.146;6.576;2022-12-13T04:46:02;17.27;;;7.47;;
42906;SDS011;28552;51.146;6.576;2022-12-13T04:49:02;13.60;;;6.60;;
42906;SDS011;28552;51.146;6.576;2022-12-13T04:52:03;13.17;;;5.27;;
42906;SDS011;28552;51.146;6.576;2022-12-13T04:55:04;10.37;;;5.07;;
42906;SDS011;28552;51.146;6.576;2022-12-13T04:58:05;14.70;;;7.53;;
42906;SDS011;28552;51.146;6.576;2022-12-13T05:01:06;17.63;;;7.80;;
42906;SDS011;28552;51.146;6.576;2022-12-13T05:04:08;15.20;;;6.97;;
42906;SDS011;28552;51.146;6.576;2022-12-13T05:07:08;10.33;;;4.30;;
42906;SDS011;28552;51.146;6.576;2022-12-13T05:10:09;18.07;;;6.23;;
42906;SDS011;28552;51.146;6.576;2022-12-13T05:13:10;19.43;;;7.97;;
42906;SDS011;28552;51.146;6.576;2022-12-13T05:16:10;9.80;;;5.60;;
42906;SDS011;28552;51.146;6.576;2022-12-13T05:19:11;10.80;;;7.23;;
42906;SDS011;28552;51.146;6.576;2022-12-13T05:22:12;13.40;;;7.13;;
42906;SDS011;28552;51.146;6.576;2022-12-13T05:25:14;14.43;;;8.60;;
42906;SDS011;28552;51.146;6.576;2022-12-13T05:28:15;11.77;;;6.73;;
42906;SDS011;28552;51.146;6.576;2022-12-13T05:31:15;9.70;;;4.63;;
42906;SDS011;28552;51.146;6.576;2022-12-13T05:34:16;11.67;;;5.60;;
42906;SDS011;28552;51.146;6.576;2022-12-13T05:37:16;11.23;;;5.57;;
42906;SDS011;28552;51.146;6.576;2022-12-13T05:40:17;9.37;;;4.73;;
42906;SDS011;28552;51.146;6.576;2022-12-13T05:43:17;8.27;;;5.77;;
42906;SDS011;28552;51.146;6.576;2022-12-13T05:46:18;18.67;;;5.63;;
42906;SDS011;28552;51.146;6.576;2022-12-13T05:49:18;14.17;;;4.90;;
42906;SDS011;28552;51.146;6.576;2022-12-13T05:52:20;14.20;;;6.47;;
42906;SDS011;28552;51.146;6.576;2022-12-13T05:55:21;10.40;;;5.23;;
42906;SDS011;28552;51.146;6.576;2022-12-13T05:58:21;17.00;;;6.43;;
42906;SDS011;28552;51.146;6.576;2022-12-13T06:01:22;14.50;;;5.60;;
42906;SDS011;28552;51.146;6.576;2022-12-13T06:04:22;9.33;;;5.27;;
42906;SDS011;28552;51.146;6.576;2022-12-13T06:07:23;14.53;;;6.47;;
42906;SDS011;28552;51.146;6.576;2022-12-13T06:10:23;14.53;;;8.13;;
42906;SDS011;28552;51.146;6.576;2022-12-13T06:13:24;12.97;;;6.30;;
42906;SDS011;28552;51.146;6.576;2022-12-13T06:16:25;11.10;;;6.17;;
42906;SDS011;28552;51.146;6.576;2022-12-13T06:19:26;11.27;;;4.43;;
42906;SDS011;28552;51.146;6.576;2022-12-13T06:22:26;18.70;;;6.40;;
42906;SDS011;28552;51.146;6.576;2022-12-13T06:25:27;11.87;;;6.07;;
42906;SDS011;28552;51.146;6.576;2022-12-13T06:28:28;14.90;;;8.60;;
42906;SDS011;28552;51.146;6.576;2022-12-13T06:31:28;13.27;;;7.60;;
42906;SDS011;28552;51.146;6.576;2022-12-13T06:34:30;13.63;;;6.47;;
42906;SDS011;28552;51.146;6.576;2022-12-13T06:37:32;15.33;;;6.40;;
42906;SDS011;28552;51.146;6.576;2022-12-13T06:40:32;12.77;;;5.73;;
42906;SDS011;28552;51.146;6.576;2022-12-13T06:43:33;15.10;;;6.90;;
42906;SDS011;28552;51.146;6.576;2022-12-13T06:46:34;14.33;;;7.33;;
42906;SDS011;28552;51.146;6.576;2022-12-13T06:49:34;8.30;;;4.73;;
42906;SDS011;28552;51.146;6.576;2022-12-13T06:52:35;15.67;;;6.87;;
42906;SDS011;28552;51.146;6.576;2022-12-13T06:55:36;12.27;;;6.57;;
42906;SDS011;28552;51.146;6.576;2022-12-13T06:58:37;16.77;;;8.50;;
42906;SDS011;28552;51.146;6.576;2022-12-13T07:01:39;10.10;;;6.17;;
42906;SDS011;28552;51.146;6.576;2022-12-13T07:04:40;15.00;;;8.50;;
42906;SDS011;28552;51.146;6.576;2022-12-13T07:07:40;9.23;;;6.23;;
42906;SDS011;28552;51.146;6.576;2022-12-13T07:10:41;12.00;;;6.83;;
42906;SDS011;28552;51.146;6.576;2022-12-13T07:13:41;9.80;;;6.13;;
42906;SDS011;28552;51.146;6.576;2022-12-13T07:16:42;14.90;;;6.87;;
42906;SDS011;28552;51.146;6.576;2022-12-13T07:19:43;12.00;;;6.00;;
42906;SDS011;28552;51.146;6.576;2022-12-13T07:22:43;17.30;;;7.33;;
42906;SDS011;28552;51.146;6.576;2022-12-13T07:25:52;10.70;;;7.07;;
42906;SDS011;28552;51.146;6.576;2022-12-13T07:28:53;10.38;;;5.78;;
42906;SDS011;28552;51.146;6.576;2022-12-13T07:31:54;14.13;;;7.50;;
42906;SDS011;28552;51.146;6.576;2022-12-13T07:34:54;12.70;;;6.37;;
42906;SDS011;28552;51.146;6.576;2022-12-13T07:37:55;16.17;;;6.00;;
42906;SDS011;28552;51.146;6.576;2022-12-13T07:40:56;11.97;;;4.87;;
42906;SDS011;28552;51.146;6.576;2022-12-13T07:43:56;20.90;;;8.10;;
42906;SDS011;28552;51.146;6.576;2022-12-13T07:46:57;12.77;;;5.93;;
42906;SDS011;28552;51.146;6.576;2022-12-13T07:49:58;8.93;;;6.00;;
42906;SDS011;28552;51.146;6.576;2022-12-13T07:53:02;14.53;;;6.43;;
42906;SDS011;28552;51.146;6.576;2022-12-13T07:56:04;7.63;;;4.83;;
42906;SDS011;28552;51.146;6.576;2022-12-13T07:59:08;11.23;;;6.13;;
42906;SDS011;28552;51.146;6.576;2022-12-13T08:02:10;11.10;;;5.83;;
42906;SDS011;28552;51.146;6.576;2022-12-13T08:05:12;15.80;;;7.03;;
42906;SDS011;28552;51.146;6.576;2022-12-13T08:08:12;11.43;;;6.73;;
42906;SDS011;28552;51.146;6.576;2022-12-13T08:11:13;9.93;;;5.57;;
42906;SDS011;28552;51.146;6.576;2022-12-13T08:14:15;15.43;;;6.00;;
42906;SDS011;28552;51.146;6.576;2022-12-13T08:17:16;14.20;;;6.77;;
42906;SDS011;28552;51.146;6.576;2022-12-13T08:20:16;12.43;;;5.57;;
42906;SDS011;28552;51.146;6.576;2022-12-13T08:23:18;8.30;;;4.47;;
42906;SDS011;28552;51.146;6.576;2022-12-13T08:26:19;15.90;;;8.40;;
42906;SDS011;28552;51.146;6.576;2022-12-13T08:29:21;12.37;;;5.97;;
42906;SDS011;28552;51.146;6.576;2022-12-13T08:32:22;7.63;;;4.17;;
42906;SDS011;28552;51.146;6.576;2022-12-13T08:35:26;17.53;;;5.80;;
42906;SDS011;28552;51.146;6.576;2022-12-13T08:38:27;11.97;;;6.47;;
42906;SDS011;28552;51.146;6.576;2022-12-13T08:41:28;11.37;;;5.80;;
42906;SDS011;28552;51.146;6.576;2022-12-13T08:44:29;17.03;;;6.80;;
42906;SDS011;28552;51.146;6.576;2022-12-13T08:47:30;16.73;;;8.03;;
42906;SDS011;28552;51.146;6.576;2022-12-13T08:50:30;14.87;;;7.57;;
42906;SDS011;28552;51.146;6.576;2022-12-13T08:53:31;12.63;;;5.27;;
42906;SDS011;28552;51.146;6.576;2022-12-13T08:56:31;13.30;;;7.23;;
42906;SDS011;28552;51.146;6.576;2022-12-13T08:59:32;13.73;;;5.90;;
42906;SDS011;28552;51.146;6.576;2022-12-13T09:02:32;11.97;;;6.00;;
42906;SDS011;28552;51.146;6.576;2022-12-13T09:05:33;12.37;;;7.63;;
42906;SDS011;28552;51.146;6.576;2022-12-13T09:08:33;14.17;;;6.33;;
42906;SDS011;28552;51.146;6.576;2022-12-13T09:11:34;10.80;;;5.80;;
42906;SDS011;28552;51.146;6.576;2022-12-13T09:14:34;13.17;;;7.00;;
42906;SDS011;28552;51.146;6.576;2022-12-13T09:17:35;25.63;;;6.40;;
42906;SDS011;28552;51.146;6.576;2022-12-13T09:20:36;14.63;;;6.50;;
42906;SDS011;28552;51.146;6.576;2022-12-13T09:23:36;17.60;;;6.27;;
42906;SDS011;28552;51.146;6.576;2022-12-13T09:26:38;12.37;;;6.10;;
42906;SDS011;28552;51.146;6.576;2022-12-13T09:29:38;12.43;;;6.80;;
42906;SDS011;28552;51.146;6.576;2022-12-13T09:32:39;14.93;;;6.67;;
42906;SDS011;28552;51.146;6.576;2022-12-13T09:35:40;13.83;;;6.27;;
42906;SDS011;28552;51.146;6.576;2022-12-13T09:38:40;11.13;;;5.47;;
42906;SDS011;28552;51.146;6.576;2022-12-13T09:41:42;15.50;;;5.77;;
42906;SDS011;28552;51.146;6.576;2022-12-13T09:44:49;16.33;;;7.57;;
42906;SDS011;28552;51.146;6.576;2022-12-13T09:47:55;13.67;;;6.30;;
42906;SDS011;28552;51.146;6.576;2022-12-13T09:50:58;15.07;;;6.80;;
42906;SDS011;28552;51.146;6.576;2022-12-13T09:53:59;15.50;;;7.43;;
42906;SDS011;28552;51.146;6.576;2022-12-13T09:56:59;10.60;;;5.50;;
42906;SDS011;28552;51.146;6.576;2022-12-13T10:00:02;18.47;;;8.90;;
42906;SDS011;28552;51.146;6.576;2022-12-13T10:03:05;13.20;;;5.80;;
42906;SDS011;28552;51.146;6.576;2022-12-13T10:06:13;12.40;;;6.00;;
42906;SDS011;28552;51.146;6.576;2022-12-13T10:09:16;18.80;;;7.87;;
42906;SDS011;28552;51.146;6.576;2022-12-13T10:12:17;16.07;;;6.23;;
42906;SDS011;28552;51.146;6.576;2022-12-13T10:15:18;17.10;;;6.50;;
42906;SDS011;28552;51.146;6.576;2022-12-13T10:21:37;20.30;;;7.93;;
42906;SDS011;28552;51.146;6.576;2022-12-13T10:27:56;18.07;;;6.93;;
42906;SDS011;28552;51.146;6.576;2022-12-13T10:30:57;17.97;;;7.97;;
42906;SDS011;28552;51.146;6.576;2022-12-13T10:33:59;15.50;;;6.23;;
42906;SDS011;28552;51.146;6.576;2022-12-13T10:37:18;14.07;;;7.33;;
42906;SDS011;28552;51.146;6.576;2022-12-13T10:40:35;16.17;;;7.57;;
42906;SDS011;28552;51.146;6.576;2022-12-13T10:43:37;15.20;;;6.53;;
42906;SDS011;28552;51.146;6.576;2022-12-13T10:46:38;13.13;;;5.73;;
42906;SDS011;28552;51.146;6.576;2022-12-13T10:49:49;18.27;;;5.77;;
42906;SDS011;28552;51.146;6.576;2022-12-13T10:52:52;12.63;;;5.73;;
42906;SDS011;28552;51.146;6.576;2022-12-13T10:55:53;15.90;;;7.00;;
42906;SDS011;28552;51.146;6.576;2022-12-13T11:02:27;12.40;;;5.67;;
42906;SDS011;28552;51.146;6.576;2022-12-13T11:05:29;12.97;;;5.37;;
42906;SDS011;28552;51.146;6.576;2022-12-13T11:08:33;16.00;;;7.70;;
42906;SDS011;28552;51.146;6.576;2022-12-13T11:11:34;16.17;;;7.57;;
42906;SDS011;28552;51.146;6.576;2022-12-13T11:14:47;14.33;;;6.60;;
42906;SDS011;28552;51.146;6.576;2022-12-13T11:18:03;19.97;;;7.23;;
42906;SDS011;28552;51.146;6.576;2022-12-13T11:21:06;14.13;;;7.13;;
42906;SDS011;28552;51.146;6.576;2022-12-13T11:24:08;19.40;;;8.57;;
42906;SDS011;28552;51.146;6.576;2022-12-13T11:27:23;18.07;;;7.10;;
42906;SDS011;28552;51.146;6.576;2022-12-13T11:30:31;17.30;;;7.77;;
42906;SDS011;28552;51.146;6.576;2022-12-13T11:33:53;15.87;;;7.40;;
42906;SDS011;28552;51.146;6.576;2022-12-13T11:40:17;13.97;;;6.50;;
42906;SDS011;28552;51.146;6.576;2022-12-13T11:43:25;17.67;;;7.27;;
42906;SDS011;28552;51.146;6.576;2022-12-13T11:46:39;17.77;;;8.63;;
42906;SDS011;28552;51.146;6.576;2022-12-13T11:49:43;17.30;;;6.93;;
42906;SDS011;28552;51.146;6.576;2022-12-13T11:52:47;19.20;;;8.10;;
42906;SDS011;28552;51.146;6.576;2022-12-13T11:56:03;20.13;;;7.17;;
42906;SDS011;28552;51.146;6.576;2022-12-13T11:59:08;14.87;;;6.03;;
42906;SDS011;28552;51.146;6.576;2022-12-13T12:02:28;17.20;;;7.07;;
42906;SDS011;28552;51.146;6.576;2022-12-13T12:05:34;13.33;;;5.83;;
42906;SDS011;28552;51.146;6.576;2022-12-13T12:08:39;15.47;;;5.77;;
42906;SDS011;28552;51.146;6.576;2022-12-13T12:15:04;14.20;;;6.10;;
42906;SDS011;28552;51.146;6.576;2022-12-13T12:18:13;14.95;;;7.18;;
42906;SDS011;28552;51.146;6.576;2022-12-13T12:24:21;14.17;;;6.93;;
42906;SDS011;28552;51.146;6.576;2022-12-13T12:27:42;18.40;;;6.03;;
42906;SDS011;28552;51.146;6.576;2022-12-13T12:30:58;9.60;;;5.03;;
42906;SDS011;28552;51.146;6.576;2022-12-13T12:34:14;13.93;;;6.27;;
42906;SDS011;28552;51.146;6.576;2022-12-13T12:47:29;12.07;;;5.33;;
42906;SDS011;28552;51.146;6.576;2022-12-13T12:53:53;14.63;;;4.83;;
42906;SDS011;28552;51.146;6.576;2022-12-13T13:00:14;14.60;;;6.23;;
42906;SDS011;28552;51.146;6.576;2022-12-13T13:03:18;12.23;;;4.97;;
42906;SDS011;28552;51.146;6.576;2022-12-13T13:06:23;17.73;;;6.00;;
42906;SDS011;28552;51.146;6.576;2022-12-13T13:09:29;13.23;;;5.87;;
42906;SDS011;28552;51.146;6.576;2022-12-13T13:12:31;12.77;;;4.07;;
42906;SDS011;28552;51.146;6.576;2022-12-13T13:18:42;13.40;;;6.27;;
42906;SDS011;28552;51.146;6.576;2022-12-13T13:21:51;15.23;;;5.60;;
42906;SDS011;28552;51.146;6.576;2022-12-13T13:25:12;12.57;;;5.50;;
42906;SDS011;28552;51.146;6.576;2022-12-13T13:28:20;12.00;;;5.30;;
42906;SDS011;28552;51.146;6.576;2022-12-13T13:31:21;12.90;;;5.57;;
42906;SDS011;28552;51.146;6.576;2022-12-13T13:34:23;12.87;;;4.37;;
42906;SDS011;28552;51.146;6.576;2022-12-13T13:37:26;11.90;;;5.23;;
42906;SDS011;28552;51.146;6.576;2022-12-13T13:40:44;16.00;;;5.23;;
42906;SDS011;28552;51.146;6.576;2022-12-13T13:43:45;13.33;;;5.30;;
42906;SDS011;28552;51.146;6.576;2022-12-13T13:59:54;12.30;;;4.60;;
42906;SDS011;28552;51.146;6.576;2022-12-13T14:20:16;12.60;;;4.83;;
42906;SDS011;28552;51.146;6.576;2022-12-13T14:30:11;11.53;;;4.93;;
42906;SDS011;28552;51.146;6.576;2022-12-13T14:33:17;13.23;;;5.53;;
42906;SDS011;28552;51.146;6.576;2022-12-13T14:36:28;9.77;;;4.97;;
42906;SDS011;28552;51.146;6.576;2022-12-13T14:39:32;8.90;;;4.00;;
42906;SDS011;28552;51.146;6.576;2022-12-13T14:42:33;10.53;;;3.80;;
42906;SDS011;28552;51.146;6.576;2022-12-13T14:45:35;12.63;;;3.80;;
42906;SDS011;28552;51.146;6.576;2022-12-13T14:48:44;10.53;;;4.53;;
42906;SDS011;28552;51.146;6.576;2022-12-13T14:51:48;11.63;;;3.97;;
42906;SDS011;28552;51.146;6.576;2022-12-13T14:54:57;7.67;;;3.40;;
42906;SDS011;28552;51.146;6.576;2022-12-13T14:57:59;7.97;;;3.60;;
42906;SDS011;28552;51.146;6.576;2022-12-13T15:01:03;9.53;;;3.97;;
42906;SDS011;28552;51.146;6.576;2022-12-13T15:10:39;10.30;;;3.77;;
42906;SDS011;28552;51.146;6.576;2022-12-13T15:13:45;9.10;;;3.87;;
42906;SDS011;28552;51.146;6.576;2022-12-13T15:16:51;6.80;;;3.17;;
42906;SDS011;28552;51.146;6.576;2022-12-13T15:19:53;12.50;;;3.90;;
42906;SDS011;28552;51.146;6.576;2022-12-13T15:22:56;8.73;;;3.27;;
42906;SDS011;28552;51.146;6.576;2022-12-13T15:26:01;10.37;;;2.87;;
42906;SDS011;28552;51.146;6.576;2022-12-13T15:29:06;9.10;;;2.67;;
42906;SDS011;28552;51.146;6.576;2022-12-13T15:32:10;8.57;;;4.37;;
42906;SDS011;28552;51.146;6.576;2022-12-13T15:35:24;8.07;;;3.10;;
42906;SDS011;28552;51.146;6.576;2022-12-13T15:38:25;11.17;;;2.93;;
42906;SDS011;28552;51.146;6.576;2022-12-13T15:41:27;7.37;;;2.97;;
42906;SDS011;28552;51.146;6.576;2022-12-13T15:44:32;13.87;;;4.43;;
42906;SDS011;28552;51.146;6.576;2022-12-13T15:47:42;7.18;;;3.08;;
42906;SDS011;28552;51.146;6.576;2022-12-13T15:50:45;9.90;;;3.57;;
42906;SDS011;28552;51.146;6.576;2022-12-13T15:57:12;13.20;;;3.80;;
42906;SDS011;28552;51.146;6.576;2022-12-13T16:00:21;13.53;;;5.37;;
42906;SDS011;28552;51.146;6.576;2022-12-13T16:03:22;11.53;;;4.97;;
42906;SDS011;28552;51.146;6.576;2022-12-13T16:06:25;10.37;;;4.27;;
42906;SDS011;28552;51.146;6.576;2022-12-13T16:09:27;8.70;;;4.27;;
42906;SDS011;28552;51.146;6.576;2022-12-13T16:12:49;9.20;;;3.37;;
42906;SDS011;28552;51.146;6.576;2022-12-13T16:15:54;10.33;;;3.43;;
42906;SDS011;28552;51.146;6.576;2022-12-13T16:18:58;9.23;;;3.80;;
42906;SDS011;28552;51.146;6.576;2022-12-13T16:21:59;7.77;;;3.27;;
42906;SDS011;28552;51.146;6.576;2022-12-13T16:25:00;10.00;;;3.20;;
42906;SDS011;28552;51.146;6.576;2022-12-13T16:28:01;12.60;;;3.47;;
42906;SDS011;28552;51.146;6.576;2022-12-13T16:31:04;9.20;;;3.27;;
42906;SDS011;28552;51.146;6.576;2022-12-13T16:34:14;8.30;;;3.50;;
42906;SDS011;28552;51.146;6.576;2022-12-13T16:37:16;12.47;;;4.53;;
42906;SDS011;28552;51.146;6.576;2022-12-13T16:40:24;13.60;;;4.67;;
42906;SDS011;28552;51.146;6.576;2022-12-13T16:43:29;7.93;;;3.63;;
42906;SDS011;28552;51.146;6.576;2022-12-13T16:46:31;12.10;;;5.03;;
42906;SDS011;28552;51.146;6.576;2022-12-13T16:49:32;8.57;;;3.93;;
42906;SDS011;28552;51.146;6.576;2022-12-13T16:52:33;7.93;;;3.63;;
42906;SDS011;28552;51.146;6.576;2022-12-13T16:55:34;9.10;;;4.63;;
42906;SDS011;28552;51.146;6.576;2022-12-13T16:58:35;8.20;;;3.60;;
42906;SDS011;28552;51.146;6.576;2022-12-13T17:01:36;11.20;;;4.03;;
42906;SDS011;28552;51.146;6.576;2022-12-13T17:04:36;8.93;;;3.77;;
42906;SDS011;28552;51.146;6.576;2022-12-13T17:07:40;8.00;;;3.53;;
42906;SDS011;28552;51.146;6.576;2022-12-13T17:10:42;13.53;;;4.97;;
42906;SDS011;28552;51.146;6.576;2022-12-13T17:13:43;7.83;;;3.00;;
42906;SDS011;28552;51.146;6.576;2022-12-13T17:16:45;9.43;;;3.40;;
42906;SDS011;28552;51.146;6.576;2022-12-13T17:19:46;9.17;;;3.27;;
42906;SDS011;28552;51.146;6.576;2022-12-13T17:22:47;9.70;;;3.13;;
42906;SDS011;28552;51.146;6.576;2022-12-13T17:25:47;8.90;;;3.23;;
42906;SDS011;28552;51.146;6.576;2022-12-13T17:28:48;7.20;;;3.10;;
42906;SDS011;28552;51.146;6.576;2022-12-13T17:31:48;7.57;;;3.50;;
42906;SDS011;28552;51.146;6.576;2022-12-13T17:34:49;7.50;;;2.60;;
42906;SDS011;28552;51.146;6.576;2022-12-13T17:37:50;8.83;;;2.93;;
42906;SDS011;28552;51.146;6.576;2022-12-13T17:40:52;6.93;;;3.27;;
42906;SDS011;28552;51.146;6.576;2022-12-13T17:43:56;11.23;;;3.90;;
42906;SDS011;28552;51.146;6.576;2022-12-13T17:46:58;7.30;;;3.37;;
42906;SDS011;28552;51.146;6.576;2022-12-13T17:49:58;9.63;;;3.10;;
42906;SDS011;28552;51.146;6.576;2022-12-13T17:52:59;4.57;;;2.17;;
42906;SDS011;28552;51.146;6.576;2022-12-13T17:56:01;9.70;;;2.27;;
42906;SDS011;28552;51.146;6.576;2022-12-13T17:59:03;6.43;;;2.63;;
42906;SDS011;28552;51.146;6.576;2022-12-13T18:02:05;9.77;;;2.97;;
42906;SDS011;28552;51.146;6.576;2022-12-13T18:05:08;9.53;;;2.43;;
42906;SDS011;28552;51.146;6.576;2022-12-13T18:08:10;7.23;;;2.90;;
42906;SDS011;28552;51.146;6.576;2022-12-13T18:11:11;5.00;;;2.10;;
42906;SDS011;28552;51.146;6.576;2022-12-13T18:14:14;7.67;;;3.43;;
42906;SDS011;28552;51.146;6.576;2022-12-13T18:17:14;10.23;;;3.27;;
42906;SDS011;28552;51.146;6.576;2022-12-13T18:20:15;10.30;;;3.80;;
42906;SDS011;28552;51.146;6.576;2022-12-13T18:23:16;8.53;;;2.83;;
42906;SDS011;28552;51.146;6.576;2022-12-13T18:26:16;7.47;;;2.13;;
42906;SDS011;28552;51.146;6.576;2022-12-13T18:29:17;7.30;;;3.50;;
42906;SDS011;28552;51.146;6.576;2022-12-13T18:32:18;8.53;;;3.53;;
42906;SDS011;28552;51.146;6.576;2022-12-13T18:35:18;8.30;;;2.70;;
42906;SDS011;28552;51.146;6.576;2022-12-13T18:38:19;10.40;;;3.80;;
42906;SDS011;28552;51.146;6.576;2022-12-13T18:41:21;8.63;;;3.70;;
42906;SDS011;28552;51.146;6.576;2022-12-13T18:44:23;9.90;;;3.47;;
42906;SDS011;28552;51.146;6.576;2022-12-13T18:47:24;8.13;;;2.97;;
42906;SDS011;28552;51.146;6.576;2022-12-13T18:50:26;6.07;;;3.03;;
42906;SDS011;28552;51.146;6.576;2022-12-13T18:53:26;11.13;;;3.00;;
42906;SDS011;28552;51.146;6.576;2022-12-13T18:56:28;13.07;;;5.27;;
42906;SDS011;28552;51.146;6.576;2022-12-13T18:59:28;8.07;;;3.67;;
42906;SDS011;28552;51.146;6.576;2022-12-13T19:02:29;9.70;;;3.33;;
42906;SDS011;28552;51.146;6.576;2022-12-13T19:05:30;9.23;;;2.97;;
42906;SDS011;28552;51.146;6.576;2022-12-13T19:08:30;6.83;;;2.23;;
42906;SDS011;28552;51.146;6.576;2022-12-13T19:11:31;8.63;;;3.03;;
42906;SDS011;28552;51.146;6.576;2022-12-13T19:14:32;6.37;;;2.60;;
42906;SDS011;28552;51.146;6.576;2022-12-13T19:17:33;4.97;;;2.47;;
42906;SDS011;28552;51.146;6.576;2022-12-13T19:20:33;7.67;;;3.47;;
42906;SDS011;28552;51.146;6.576;2022-12-13T19:23:34;7.10;;;2.60;;
42906;SDS011;28552;51.146;6.576;2022-12-13T19:26:35;8.03;;;3.00;;
42906;SDS011;28552;51.146;6.576;2022-12-13T19:29:35;5.80;;;1.60;;
42906;SDS011;28552;51.146;6.576;2022-12-13T19:32:36;10.40;;;3.23;;
42906;SDS011;28552;51.146;6.576;2022-12-13T19:35:36;9.30;;;3.10;;
42906;SDS011;28552;51.146;6.576;2022-12-13T19:38:37;10.03;;;3.17;;
42906;SDS011;28552;51.146;6.576;2022-12-13T19:41:38;5.37;;;2.33;;
42906;SDS011;28552;51.146;6.576;2022-12-13T19:44:39;7.63;;;3.57;;
42906;SDS011;28552;51.146;6.576;2022-12-13T19:47:40;6.03;;;2.70;;
42906;SDS011;28552;51.146;6.576;2022-12-13T19:50:41;6.43;;;3.03;;
42906;SDS011;28552;51.146;6.576;2022-12-13T19:53:43;7.03;;;2.47;;
42906;SDS011;28552;51.146;6.576;2022-12-13T19:56:43;6.20;;;2.60;;
42906;SDS011;28552;51.146;6.576;2022-12-13T19:59:45;5.33;;;2.60;;
42906;SDS011;28552;51.146;6.576;2022-12-13T20:02:45;5.60;;;2.80;;